Delphos, Kansas
Current Conditions -  °F | °C
As of 2:55 PM on Thursday 20 Nov 2014 (Local Time) from KCNK Reporting Station
Clear Clear  
Wind Chill: 35°   Ceiling: Unl
Heat Index: 41°   Visibility: 10mi
Dew Point: 20°   Wind: 9mph
Humidity: 43%   Direction: 100°E
Pressure: 30.11"   Gusts: NA
Location:  39.27°N, 97.77°W
Report Text: KCNK 202055Z AUTO 10008KT 10SM CLR 05/M07 A3011 RMK AO2 SLP211 T00501067 56019
Loading
Personal Weather Stations






























Interactive Weather Map New forecast layout! Learn more

10-Day Weather Forecast

Advertisements
Track Severe Weather on mobile